Hauptseite
METAR-TAF:

METAR-TAF

Flughäfen :

Flugplatz Shoreham

Brighton, England

Breite: 50-50N, Länge: 000-17W, Höhe: 2 m

Beobachtung

Neuester Wetterbericht von vor 5 Stunden und 44 Minuten, um 18:20 UTC
Wind 5 kt aus Ost/Nordost
Temperatur 14°C
Luftfeuchtigkeit 88%
Luftdruck 1008 hPa
Sichtweite: 9000 m
Aufgelockert bewölkt in der Höhe von 1000 ft

METAR: EGKA 231820Z 07005KT 9000 SCT010 14/12 Q1008

Zeit: 01:04 (00:04 UTC)

Prognose

Neuester Wetterbericht von vor 5 Stunden und 12 Minuten, um 18:52 UTC
Gültige Prognose vom 23 um 18 UTC bis 23 um 19 UTC
Wind 8 kt aus Nordost
Sichtweite 10 km oder mehr
Leicht bewölkt in der Höhe von 1000 ft
Übergehend zu
vom 23 um 18 UTC bis 23 um 19 UTC
Sichtweite: 6000 m
Durchbrochene Bewölkung in der Höhe von 900 ft
Leichtregen

TAF: EGKA 231852Z 2318/2319 05008KT 9999 FEW010 BECMG 2318/2319 6000 -RA BKN009

Wetterbeobachtungen und Prognosen von mehr als 4000 Flughäfen (METAR und TAF Bericht).

Die verfügbaren Stationen werden durch gelbe und rote Markierungen auf der Karte dargestellt.

Führen Sie die Maus auf sie, um den Namen der Station zu sehen.

Darauf klicken, um die Beobachtung von Wetterbeobachtungen und Prognosen zu sehen.

Um die Karte zu ändern : klicken Sie auf den grünen Tasten mit einem schwarzen Kreuz Zum Vergrößern, auf den grünen Button mit einem Gedankenstrich zu verkleinern, oder auf die grünen Pfeile für benachbarte Karten.


METAR-TAF: